createdAt,value
2019-05-19T00:02:08.660Z,20.37
2019-05-19T00:04:33.870Z,23.23
2019-05-19T00:06:59.287Z,23.10
2019-05-19T00:09:24.399Z,21.60
2019-05-19T00:11:49.489Z,24.53
2019-05-19T00:14:14.720Z,27.80
2019-05-19T00:16:39.806Z,21.97
2019-05-19T00:19:05.053Z,24.50
2019-05-19T00:21:30.189Z,23.57
2019-05-19T00:23:55.290Z,21.13
2019-05-19T00:26:20.428Z,23.43
2019-05-19T00:28:45.615Z,22.40
2019-05-19T00:31:10.727Z,25.30
2019-05-19T00:33:35.903Z,24.20
2019-05-19T00:36:01.039Z,21.77
2019-05-19T00:38:26.136Z,20.30
2019-05-19T00:40:51.270Z,25.83
2019-05-19T00:43:16.894Z,22.77
2019-05-19T00:45:43.521Z,27.23
2019-05-19T00:48:08.675Z,25.17
2019-05-19T00:50:33.742Z,29.63
2019-05-19T00:52:58.870Z,25.53
2019-05-19T00:55:23.974Z,25.70
2019-05-19T00:57:49.599Z,24.07
2019-05-19T01:00:15.110Z,25.43
2019-05-19T01:02:40.250Z,23.27
2019-05-19T01:05:05.714Z,21.13
2019-05-19T01:07:30.801Z,23.13
2019-05-19T01:09:55.922Z,23.50
2019-05-19T01:12:21.031Z,25.43
2019-05-19T01:14:46.238Z,24.70
2019-05-19T01:17:11.329Z,27.83
2019-05-19T01:19:36.572Z,24.53
2019-05-19T01:22:01.669Z,27.30
2019-05-19T01:24:26.778Z,24.07
2019-05-19T01:26:51.875Z,26.73
2019-05-19T01:29:16.968Z,22.13
2019-05-19T01:31:42.104Z,26.13
2019-05-19T01:34:07.197Z,25.60
2019-05-19T01:36:32.329Z,26.53
2019-05-19T01:38:57.417Z,24.47
2019-05-19T01:41:22.581Z,24.90
2019-05-19T01:43:47.669Z,23.93
2019-05-19T01:46:13.758Z,29.37
2019-05-19T01:48:38.857Z,25.53
2019-05-19T01:51:04.077Z,24.73
2019-05-19T01:53:29.177Z,25.10
2019-05-19T01:55:54.279Z,27.43
2019-05-19T01:58:19.423Z,24.50
2019-05-19T02:00:44.510Z,22.23
2019-05-19T02:03:09.658Z,23.20
2019-05-19T02:05:34.767Z,27.97
2019-05-19T02:07:59.902Z,23.67
2019-05-19T02:10:25.010Z,23.17
2019-05-19T02:12:50.234Z,25.53
2019-05-19T02:15:15.637Z,24.37
2019-05-19T02:17:40.751Z,25.17
2019-05-19T02:20:08.373Z,25.13
2019-05-19T02:22:34.982Z,24.53
2019-05-19T02:25:00.188Z,24.80
2019-05-19T02:27:25.278Z,27.83
2019-05-19T02:29:50.411Z,24.90
2019-05-19T02:32:15.504Z,27.20
2019-05-19T02:34:40.619Z,26.00
2019-05-19T02:37:06.694Z,24.67
2019-05-19T02:39:31.836Z,27.40
2019-05-19T02:41:59.069Z,25.83
2019-05-19T02:44:25.059Z,24.77
2019-05-19T02:46:51.638Z,28.27
2019-05-19T02:49:18.468Z,29.80
2019-05-19T02:51:45.582Z,22.83
2019-05-19T02:54:11.570Z,24.47
2019-05-19T02:56:36.987Z,26.00
2019-05-19T02:59:02.181Z,28.97
2019-05-19T03:01:27.313Z,30.50
2019-05-19T03:03:52.407Z,25.77
2019-05-19T03:06:17.770Z,24.87
2019-05-19T03:08:42.895Z,25.00
2019-05-19T03:11:08.019Z,22.87
2019-05-19T03:13:33.146Z,25.63
2019-05-19T03:15:58.244Z,23.07
2019-05-19T03:18:23.370Z,23.70
2019-05-19T03:20:48.645Z,24.37
2019-05-19T03:23:13.830Z,21.80
2019-05-19T03:25:38.967Z,24.47
2019-05-19T03:28:04.106Z,22.50
2019-05-19T03:30:54.751Z,24.37
2019-05-19T03:33:22.287Z,21.80
2019-05-19T03:35:47.392Z,26.77
2019-05-19T03:38:12.526Z,23.67
2019-05-19T03:40:37.635Z,25.53
2019-05-19T03:43:02.727Z,23.27
2019-05-19T03:45:27.849Z,22.33
2019-05-19T03:47:52.950Z,22.87
2019-05-19T03:50:18.276Z,24.27
2019-05-19T03:52:44.341Z,27.67
2019-05-19T03:55:09.499Z,24.30
2019-05-19T03:57:34.596Z,28.37
2019-05-19T03:59:59.706Z,23.03
2019-05-19T04:02:25.864Z,24.90
2019-05-19T04:04:50.964Z,22.70
2019-05-19T04:07:16.082Z,19.90
2019-05-19T04:09:41.194Z,18.90
2019-05-19T04:12:06.311Z,20.40
2019-05-19T04:14:31.413Z,18.63
2019-05-19T04:16:56.542Z,20.10
2019-05-19T04:19:21.634Z,18.33
2019-05-19T04:21:49.178Z,20.77
2019-05-19T04:24:13.714Z,16.90
2019-05-19T04:26:38.810Z,19.33
2019-05-19T04:29:04.053Z,18.40
2019-05-19T04:31:29.155Z,19.23
2019-05-19T04:33:54.262Z,21.33
2019-05-19T04:36:19.381Z,17.97
2019-05-19T04:38:44.483Z,18.93
2019-05-19T04:41:09.972Z,17.93
2019-05-19T04:43:35.183Z,16.67
2019-05-19T04:46:00.290Z,16.43
2019-05-19T04:48:25.394Z,19.37
2019-05-19T04:50:50.544Z,17.20
2019-05-19T04:53:15.674Z,15.43
2019-05-19T04:55:40.806Z,17.20
2019-05-19T04:58:05.926Z,18.43
2019-05-19T05:00:31.052Z,16.43
2019-05-19T05:02:56.187Z,17.83
2019-05-19T05:05:21.286Z,16.93
2019-05-19T05:07:46.688Z,18.53
2019-05-19T05:10:11.880Z,16.03
2019-05-19T05:12:36.983Z,17.17
2019-05-19T05:15:02.119Z,15.93
2019-05-19T05:17:27.211Z,17.63
2019-05-19T05:19:52.350Z,17.53
2019-05-19T05:22:22.033Z,16.30
2019-05-19T05:24:45.202Z,17.63
2019-05-19T05:27:10.329Z,18.33
2019-05-19T05:29:35.467Z,16.30
2019-05-19T05:32:00.552Z,15.10
2019-05-19T05:34:25.645Z,18.00
2019-05-19T05:36:51.058Z,16.37
2019-05-19T05:39:16.251Z,16.83
2019-05-19T05:41:41.376Z,18.20
2019-05-19T05:44:06.613Z,14.67
2019-05-19T05:46:31.707Z,16.73
2019-05-19T05:48:56.809Z,15.67
2019-05-19T05:51:21.951Z,14.40
2019-05-19T05:53:47.053Z,16.00
2019-05-19T05:56:12.198Z,14.60
2019-05-19T05:58:37.303Z,16.47
2019-05-19T06:01:02.402Z,15.33
2019-05-19T06:03:27.618Z,14.90
2019-05-19T06:05:52.982Z,16.17
2019-05-19T06:08:18.351Z,16.27
2019-05-19T06:10:43.479Z,13.50
2019-05-19T06:13:08.576Z,15.17
2019-05-19T06:15:33.806Z,16.33
2019-05-19T06:17:58.906Z,15.47
2019-05-19T06:20:24.010Z,14.37
2019-05-19T06:22:56.367Z,16.33
2019-05-19T06:25:16.020Z,14.57
2019-05-19T06:27:41.154Z,15.43
2019-05-19T06:30:08.655Z,14.57
2019-05-19T06:32:38.575Z,14.17
2019-05-19T06:35:03.743Z,12.97
2019-05-19T06:37:28.839Z,14.17
2019-05-19T06:39:53.979Z,17.32
2019-05-19T06:42:19.078Z,18.13
2019-05-19T06:44:44.204Z,14.78
2019-05-19T06:47:09.295Z,14.50
2019-05-19T06:49:34.390Z,13.13
2019-05-19T06:51:59.517Z,12.93
2019-05-19T06:54:24.878Z,15.65
2019-05-19T06:56:50.014Z,14.93
2019-05-19T06:59:15.093Z,14.30
2019-05-19T07:01:40.240Z,13.30
2019-05-19T07:04:05.326Z,13.43
2019-05-19T07:06:30.422Z,14.68
2019-05-19T07:08:55.563Z,14.15
2019-05-19T07:11:20.739Z,13.88
2019-05-19T07:13:45.877Z,12.82
2019-05-19T07:16:11.230Z,13.53
2019-05-19T07:18:36.371Z,13.60
2019-05-19T07:21:01.468Z,12.95
2019-05-19T07:23:28.650Z,12.63
2019-05-19T07:25:54.437Z,11.08
2019-05-19T07:28:19.592Z,10.10
2019-05-19T07:30:44.982Z,9.33
2019-05-19T07:33:10.064Z,10.35
2019-05-19T07:35:35.218Z,10.43
2019-05-19T07:38:00.342Z,11.73
2019-05-19T07:40:25.447Z,10.53
2019-05-19T07:42:50.667Z,9.70
2019-05-19T07:45:15.766Z,9.28
2019-05-19T07:47:40.887Z,9.00
2019-05-19T07:50:06.113Z,9.65
2019-05-19T07:52:31.193Z,9.10
2019-05-19T07:54:56.397Z,8.88
2019-05-19T07:57:21.491Z,13.48
2019-05-19T07:59:46.578Z,7.78
2019-05-19T08:02:11.690Z,7.62
2019-05-19T08:04:36.777Z,10.72
2019-05-19T08:07:01.898Z,7.33
2019-05-19T08:09:26.979Z,9.85
2019-05-19T08:11:52.122Z,7.85
2019-05-19T08:14:17.220Z,6.60
2019-05-19T08:16:42.321Z,7.22
2019-05-19T08:19:08.411Z,10.20
2019-05-19T08:21:33.502Z,7.70
2019-05-19T08:24:00.842Z,6.12
2019-05-19T08:26:25.422Z,6.65
2019-05-19T08:28:50.563Z,6.47
2019-05-19T08:31:15.658Z,6.12
2019-05-19T08:33:40.767Z,6.70
2019-05-19T08:36:05.909Z,6.03
2019-05-19T08:38:31.010Z,6.37
2019-05-19T08:40:56.234Z,6.08
2019-05-19T08:43:21.306Z,6.30
2019-05-19T08:45:46.454Z,5.95
2019-05-19T08:48:12.077Z,5.58
2019-05-19T08:50:37.166Z,6.58
2019-05-19T08:53:02.282Z,6.45
2019-05-19T08:55:27.370Z,7.25
2019-05-19T08:57:52.489Z,6.90
2019-05-19T09:00:18.190Z,5.90
2019-05-19T09:02:43.302Z,6.47
2019-05-19T09:05:08.481Z,8.70
2019-05-19T09:07:33.618Z,7.70
2019-05-19T09:09:58.705Z,7.05
2019-05-19T09:12:23.810Z,6.75
2019-05-19T09:14:48.947Z,8.03
2019-05-19T09:17:14.054Z,7.33
2019-05-19T09:19:39.170Z,9.15
2019-05-19T09:22:04.274Z,8.50
2019-05-19T09:24:31.134Z,6.37
2019-05-19T09:26:56.332Z,5.75
2019-05-19T09:29:21.910Z,7.28
2019-05-19T09:31:47.055Z,6.30
2019-05-19T09:34:12.142Z,6.10
2019-05-19T09:36:37.254Z,9.93
2019-05-19T09:39:02.539Z,6.58
2019-05-19T09:41:27.929Z,6.70
2019-05-19T09:43:54.797Z,6.55
2019-05-19T09:46:19.914Z,6.28
2019-05-19T09:48:45.305Z,7.60
2019-05-19T09:51:10.435Z,7.37
2019-05-19T09:53:35.538Z,6.22
2019-05-19T09:56:00.634Z,7.85
2019-05-19T09:58:25.758Z,7.78
2019-05-19T10:00:50.857Z,5.33
2019-05-19T10:03:15.981Z,5.20
2019-05-19T10:05:41.071Z,4.40
2019-05-19T10:08:06.198Z,4.12
2019-05-19T10:11:01.657Z,4.67
2019-05-19T10:13:26.858Z,6.08
2019-05-19T10:15:53.009Z,6.95
2019-05-19T10:18:18.130Z,3.83
2019-05-19T10:20:43.486Z,4.50
2019-05-19T10:23:08.602Z,4.30
2019-05-19T10:25:33.782Z,4.70
2019-05-19T10:27:58.871Z,6.05
2019-05-19T10:30:24.001Z,4.10
2019-05-19T10:32:49.105Z,5.30
2019-05-19T10:35:14.341Z,4.87
2019-05-19T10:37:39.430Z,4.87
2019-05-19T10:40:05.461Z,6.70
2019-05-19T10:42:30.565Z,5.20
2019-05-19T10:44:55.769Z,4.25
2019-05-19T10:47:21.206Z,4.95
2019-05-19T10:49:49.751Z,5.97
2019-05-19T10:52:15.466Z,4.45
2019-05-19T10:54:40.566Z,6.80
2019-05-19T10:57:05.722Z,4.67
2019-05-19T10:59:30.809Z,11.28
2019-05-19T11:01:56.194Z,5.40
2019-05-19T11:04:22.124Z,6.12
2019-05-19T11:06:47.241Z,5.60
2019-05-19T11:09:12.342Z,7.03
2019-05-19T11:11:37.491Z,5.35
2019-05-19T11:14:02.593Z,5.58
2019-05-19T11:16:27.702Z,5.87
2019-05-19T11:18:52.812Z,5.12
2019-05-19T11:21:17.906Z,5.30
2019-05-19T11:23:43.031Z,6.12
2019-05-19T11:26:08.265Z,5.20
2019-05-19T11:28:33.374Z,4.78
2019-05-19T11:30:58.478Z,5.40
2019-05-19T11:33:23.699Z,5.28
2019-05-19T11:35:48.802Z,6.37
2019-05-19T11:38:13.882Z,4.92
2019-05-19T11:40:39.051Z,6.65
2019-05-19T11:43:04.363Z,4.62
2019-05-19T11:45:29.489Z,5.12
2019-05-19T11:47:54.602Z,5.10
2019-05-19T11:50:20.971Z,5.22
2019-05-19T11:52:46.061Z,5.20
2019-05-19T11:55:12.158Z,5.10
2019-05-19T11:57:37.281Z,7.95
2019-05-19T12:00:02.442Z,5.30
2019-05-19T12:02:27.619Z,5.60
2019-05-19T12:04:52.703Z,5.42
2019-05-19T12:07:17.826Z,5.70
2019-05-19T12:09:43.176Z,6.28
2019-05-19T12:12:08.300Z,6.97
2019-05-19T12:14:33.406Z,8.73
2019-05-19T12:16:58.818Z,5.17
2019-05-19T12:19:23.985Z,5.17
2019-05-19T12:21:49.128Z,4.95
2019-05-19T12:24:14.246Z,5.20
2019-05-19T12:26:39.438Z,6.15
2019-05-19T12:29:04.554Z,5.67
2019-05-19T12:31:29.644Z,5.65
2019-05-19T12:33:54.809Z,7.55
2019-05-19T12:36:23.067Z,6.03
2019-05-19T12:38:52.347Z,5.28
2019-05-19T12:41:20.559Z,5.60
2019-05-19T12:43:48.048Z,5.80
2019-05-19T12:46:16.413Z,5.90
2019-05-19T12:48:40.227Z,7.17
2019-05-19T12:51:05.310Z,8.20
2019-05-19T12:53:30.397Z,6.85
2019-05-19T12:55:55.511Z,5.85
2019-05-19T12:58:20.594Z,5.25
2019-05-19T13:00:45.706Z,6.55
2019-05-19T13:03:12.412Z,5.62
2019-05-19T13:05:37.540Z,5.55
2019-05-19T13:08:02.639Z,5.95
2019-05-19T13:10:27.850Z,4.75
2019-05-19T13:12:52.939Z,4.95
2019-05-19T13:15:18.148Z,5.28
2019-05-19T13:17:43.273Z,6.40
2019-05-19T13:20:08.682Z,6.33
2019-05-19T13:22:34.030Z,8.15
2019-05-19T13:24:59.114Z,5.55
2019-05-19T13:27:24.313Z,5.75
2019-05-19T13:29:49.513Z,7.12
2019-05-19T13:32:14.621Z,5.70
2019-05-19T13:34:39.718Z,6.62
2019-05-19T13:37:04.806Z,6.15
2019-05-19T13:39:29.918Z,5.90
2019-05-19T13:41:55.026Z,7.62
2019-05-19T13:44:21.291Z,6.22
2019-05-19T13:46:46.395Z,6.87
2019-05-19T13:49:11.524Z,5.55
2019-05-19T13:51:36.607Z,9.28
2019-05-19T13:54:03.241Z,5.78
2019-05-19T13:56:28.590Z,4.60
2019-05-19T13:58:53.740Z,4.47
2019-05-19T14:01:28.275Z,3.75
2019-05-19T14:03:45.895Z,6.03
2019-05-19T14:06:11.021Z,6.30
2019-05-19T14:08:37.071Z,4.87
2019-05-19T14:11:02.203Z,4.37
2019-05-19T14:13:27.302Z,5.30
2019-05-19T14:15:52.430Z,7.78
2019-05-19T14:18:17.517Z,4.65
2019-05-19T14:20:42.661Z,3.83
2019-05-19T14:23:18.226Z,4.70
2019-05-19T14:25:45.039Z,7.35
2019-05-19T14:28:10.182Z,5.45
2019-05-19T14:30:35.265Z,5.53
2019-05-19T14:33:00.386Z,5.83
2019-05-19T14:35:25.490Z,5.42
2019-05-19T14:37:50.729Z,5.78
2019-05-19T14:40:18.476Z,8.20
2019-05-19T14:42:50.985Z,7.67
2019-05-19T14:45:16.487Z,5.70
2019-05-19T14:47:42.378Z,5.35
2019-05-19T14:50:07.771Z,5.70
2019-05-19T14:52:33.117Z,5.80
2019-05-19T14:54:59.202Z,7.08
2019-05-19T14:57:24.294Z,7.33
2019-05-19T14:59:49.418Z,5.75
2019-05-19T15:02:14.507Z,6.92
2019-05-19T15:04:39.672Z,5.62
2019-05-19T15:07:06.870Z,6.62
2019-05-19T15:09:31.991Z,6.33
2019-05-19T15:11:57.306Z,6.33
2019-05-19T15:14:22.678Z,5.90
2019-05-19T15:16:48.514Z,7.97
2019-05-19T15:19:13.616Z,7.58
2019-05-19T15:21:38.738Z,8.68
2019-05-19T15:24:03.918Z,6.05
2019-05-19T15:26:30.007Z,6.33
2019-05-19T15:28:55.121Z,5.20
2019-05-19T15:31:20.310Z,6.22
2019-05-19T15:33:45.415Z,6.00
2019-05-19T15:36:10.523Z,6.10
2019-05-19T15:38:35.628Z,7.12
2019-05-19T15:41:00.728Z,6.20
2019-05-19T15:43:25.850Z,6.47
2019-05-19T15:45:52.264Z,7.72
2019-05-19T15:48:17.383Z,6.30
2019-05-19T15:50:42.490Z,6.37
2019-05-19T15:53:07.603Z,6.65
2019-05-19T15:55:33.677Z,6.75
2019-05-19T15:57:58.833Z,7.67
2019-05-19T16:00:23.911Z,7.25
2019-05-19T16:02:49.139Z,10.28
2019-05-19T16:05:14.839Z,8.60
2019-05-19T16:07:39.921Z,7.25
2019-05-19T16:10:05.582Z,7.85
2019-05-19T16:12:30.902Z,9.18
2019-05-19T16:14:56.079Z,7.58
2019-05-19T16:17:21.135Z,7.97
2019-05-19T16:19:46.526Z,7.45
2019-05-19T16:22:11.630Z,7.10
2019-05-19T16:24:36.762Z,7.00
2019-05-19T16:27:02.134Z,6.33
2019-05-19T16:29:27.406Z,6.85
2019-05-19T16:31:52.515Z,6.20
2019-05-19T16:34:17.604Z,6.62
2019-05-19T16:36:43.075Z,7.12
2019-05-19T16:39:08.570Z,7.72
2019-05-19T16:41:33.763Z,7.67
2019-05-19T16:43:58.868Z,6.72
2019-05-19T16:46:24.059Z,7.97
2019-05-19T16:48:49.975Z,6.67
2019-05-19T16:51:15.063Z,6.50
2019-05-19T16:53:40.507Z,7.47
2019-05-19T16:56:05.599Z,7.97
2019-05-19T16:58:43.040Z,7.47
2019-05-19T17:00:58.163Z,7.12
2019-05-19T17:03:23.286Z,8.13
2019-05-19T17:05:48.386Z,7.97
2019-05-19T17:08:13.790Z,8.30
2019-05-19T17:10:38.910Z,8.58
2019-05-19T17:13:04.022Z,8.05
2019-05-19T17:15:29.175Z,8.00
2019-05-19T17:17:54.507Z,9.40
2019-05-19T17:20:19.829Z,11.50
2019-05-19T17:22:44.931Z,14.78
2019-05-19T17:25:10.410Z,9.88
2019-05-19T17:27:35.499Z,9.58
2019-05-19T17:30:00.702Z,9.70
2019-05-19T17:32:25.802Z,9.35
2019-05-19T17:34:50.949Z,9.18
2019-05-19T17:37:16.302Z,9.38
2019-05-19T17:39:41.422Z,15.53
2019-05-19T17:42:06.525Z,10.30
2019-05-19T17:44:31.630Z,9.73
2019-05-19T17:46:56.750Z,10.50
2019-05-19T17:49:21.842Z,9.95
2019-05-19T17:51:46.942Z,10.25
2019-05-19T17:54:12.514Z,10.23
2019-05-19T17:56:38.846Z,10.35
2019-05-19T17:59:16.234Z,10.40
2019-05-19T18:01:31.461Z,10.85
2019-05-19T18:03:56.553Z,9.40
2019-05-19T18:06:21.649Z,9.63
2019-05-19T18:08:46.774Z,10.08
2019-05-19T18:11:12.834Z,11.35
2019-05-19T18:13:37.985Z,9.33
2019-05-19T18:16:03.073Z,9.98
2019-05-19T18:18:28.202Z,10.18
2019-05-19T18:20:53.319Z,9.75
2019-05-19T18:23:18.470Z,9.93
2019-05-19T18:25:43.570Z,11.38
2019-05-19T18:28:09.476Z,11.53
2019-05-19T18:30:34.658Z,10.30
2019-05-19T18:32:59.747Z,9.98
2019-05-19T18:35:24.866Z,10.25
2019-05-19T18:37:50.030Z,11.70
2019-05-19T18:40:15.779Z,10.50
2019-05-19T18:42:40.876Z,10.28
2019-05-19T18:45:06.077Z,11.93
2019-05-19T18:47:31.178Z,10.25
2019-05-19T18:49:56.266Z,9.73
2019-05-19T18:52:21.402Z,11.08
2019-05-19T18:54:46.481Z,10.25
2019-05-19T18:57:11.618Z,11.35
2019-05-19T18:59:46.777Z,10.68
2019-05-19T19:02:03.665Z,12.90
2019-05-19T19:04:28.962Z,11.78
2019-05-19T19:06:54.203Z,12.23
2019-05-19T19:09:19.302Z,10.53
2019-05-19T19:11:44.757Z,12.20
2019-05-19T19:14:10.831Z,10.23
2019-05-19T19:16:35.931Z,10.08
2019-05-19T19:19:01.146Z,11.05
2019-05-19T19:21:26.245Z,12.07
2019-05-19T19:23:51.340Z,10.00
2019-05-19T19:26:16.573Z,9.70
2019-05-19T19:28:41.670Z,9.95
2019-05-19T19:31:06.814Z,9.45
2019-05-19T19:33:31.970Z,9.13
2019-05-19T19:35:57.137Z,10.45
2019-05-19T19:38:22.234Z,11.68
2019-05-19T19:40:47.358Z,10.32
2019-05-19T19:43:12.452Z,10.63
2019-05-19T19:45:37.579Z,9.75
2019-05-19T19:48:02.722Z,11.20
2019-05-19T19:50:27.846Z,10.90
2019-05-19T19:52:52.944Z,10.03
2019-05-19T19:55:18.165Z,13.03
2019-05-19T19:57:44.595Z,14.28
2019-05-19T20:00:17.754Z,9.45
2019-05-19T20:02:36.633Z,9.43
2019-05-19T20:05:01.741Z,11.53
2019-05-19T20:07:26.886Z,21.50
2019-05-19T20:09:52.269Z,17.30
2019-05-19T20:12:17.394Z,10.78
2019-05-19T20:14:42.483Z,12.70
2019-05-19T20:17:07.601Z,17.12
2019-05-19T20:19:32.706Z,12.40
2019-05-19T20:21:57.855Z,13.15
2019-05-19T20:24:22.950Z,10.20
2019-05-19T20:26:48.034Z,9.48
2019-05-19T20:29:13.151Z,10.50
2019-05-19T20:31:38.299Z,10.13
2019-05-19T20:34:03.440Z,10.23
2019-05-19T20:36:28.545Z,10.30
2019-05-19T20:38:53.914Z,12.47
2019-05-19T20:41:19.014Z,14.47
2019-05-19T20:43:44.226Z,12.20
2019-05-19T20:46:09.322Z,11.33
2019-05-19T20:48:34.422Z,10.15
2019-05-19T20:50:59.565Z,10.72
2019-05-19T20:53:24.657Z,10.50
2019-05-19T20:55:49.784Z,11.15
2019-05-19T20:58:15.270Z,14.05
2019-05-19T21:00:49.838Z,11.00
2019-05-19T21:03:07.720Z,11.10
2019-05-19T21:05:32.819Z,11.55
2019-05-19T21:07:57.964Z,10.53
2019-05-19T21:10:23.315Z,11.53
2019-05-19T21:12:48.446Z,10.35
2019-05-19T21:15:13.816Z,11.05
2019-05-19T21:17:39.442Z,11.55
2019-05-19T21:20:04.695Z,11.93
2019-05-19T21:22:31.069Z,14.70
2019-05-19T21:24:56.210Z,11.80
2019-05-19T21:27:21.307Z,11.30
2019-05-19T21:29:46.441Z,11.47
2019-05-19T21:32:11.634Z,12.43
2019-05-19T21:34:36.726Z,12.10
2019-05-19T21:37:01.866Z,11.70
2019-05-19T21:39:26.967Z,11.30
2019-05-19T21:41:52.102Z,12.30
2019-05-19T21:44:17.191Z,12.10
2019-05-19T21:46:42.300Z,11.73
2019-05-19T21:49:07.513Z,13.63
2019-05-19T21:51:32.616Z,11.33
2019-05-19T21:53:57.782Z,12.03
2019-05-19T21:56:22.878Z,11.40
2019-05-19T21:58:47.983Z,11.37
2019-05-19T22:01:22.804Z,11.90
2019-05-19T22:03:40.196Z,12.00
2019-05-19T22:06:05.328Z,12.20
2019-05-19T22:08:30.542Z,11.20
2019-05-19T22:10:55.650Z,10.87
2019-05-19T22:13:21.058Z,11.27
2019-05-19T22:15:46.189Z,10.97
2019-05-19T22:18:11.380Z,12.10
2019-05-19T22:20:36.732Z,11.03
2019-05-19T22:23:01.827Z,13.80
2019-05-19T22:25:27.050Z,15.97
2019-05-19T22:27:52.145Z,12.17
2019-05-19T22:30:17.444Z,11.67
2019-05-19T22:32:42.648Z,11.90
2019-05-19T22:35:09.249Z,11.10
2019-05-19T22:37:34.383Z,12.57
2019-05-19T22:39:59.488Z,13.67
2019-05-19T22:42:24.622Z,12.70
2019-05-19T22:44:49.799Z,13.83
2019-05-19T22:47:15.086Z,13.00
2019-05-19T22:49:40.205Z,13.60
2019-05-19T22:52:05.318Z,13.27
2019-05-19T22:54:30.448Z,15.80
2019-05-19T22:56:55.803Z,15.20
2019-05-19T22:59:20.926Z,14.40
2019-05-19T23:01:51.969Z,13.83
2019-05-19T23:04:12.778Z,15.27
2019-05-19T23:06:37.882Z,16.13
2019-05-19T23:09:04.558Z,14.60
2019-05-19T23:11:29.694Z,16.63
2019-05-19T23:13:55.113Z,14.17
2019-05-19T23:16:20.330Z,14.60
2019-05-19T23:18:45.422Z,16.90
2019-05-19T23:21:10.553Z,15.63
2019-05-19T23:23:35.659Z,15.53
2019-05-19T23:26:00.779Z,15.70
2019-05-19T23:28:26.853Z,15.77
2019-05-19T23:30:52.006Z,15.27
2019-05-19T23:33:17.237Z,19.27
2019-05-19T23:35:42.342Z,16.50
2019-05-19T23:38:07.471Z,16.83
2019-05-19T23:40:32.634Z,14.73
2019-05-19T23:42:57.762Z,16.20
2019-05-19T23:45:22.867Z,15.17
2019-05-19T23:47:48.838Z,15.73
2019-05-19T23:50:14.247Z,19.77
2019-05-19T23:52:39.366Z,19.17
2019-05-19T23:55:04.811Z,20.07
2019-05-19T23:57:29.907Z,17.37
2019-05-19T23:59:55.038Z,18.07
